Pekin, Illinois
Current Conditions -  °F | °C
As of 3:54 AM on Thursday 29 Jan 2015 (Local Time) from KPIA Reporting Station
Clear Clear  
Wind Chill: 34°   Ceiling: Unl
Heat Index: 39°   Visibility: 10mi
Dew Point: 33°   Wind: 7mph
Humidity: 79%   Direction: 240°WSW
Pressure: 29.68"   Gusts: NA
Location:  40.57°N, 89.64°W
Report Text: KPIA 290954Z 24006KT 10SM CLR 04/01 A2968 RMK AO2 SLP054 T00390006
Loading
Personal Weather Stations






























Interactive Weather Map New forecast layout! Learn more

10-Day Weather Forecast

Advertisements
Track Severe Weather on mobile